createdAt,value
2018-09-11T00:01:01.684Z,13.9
2018-09-11T00:02:08.621Z,14
2018-09-11T00:03:15.832Z,14
2018-09-11T00:04:23.042Z,13.9
2018-09-11T00:05:30.250Z,13.9
2018-09-11T00:06:37.469Z,13.9
2018-09-11T00:07:44.680Z,13.9
2018-09-11T00:08:51.889Z,13.9
2018-09-11T00:09:59.106Z,13.9
2018-09-11T00:11:06.316Z,13.9
2018-09-11T00:12:13.739Z,13.9
2018-09-11T00:13:20.678Z,13.9
2018-09-11T00:14:27.617Z,13.8
2018-09-11T00:15:34.835Z,13.8
2018-09-11T00:16:42.048Z,13.8
2018-09-11T00:17:49.277Z,13.8
2018-09-11T00:18:56.214Z,13.8
2018-09-11T00:20:03.426Z,13.7
2018-09-11T00:21:10.646Z,13.7
2018-09-11T00:22:17.870Z,13.7
2018-09-11T00:23:25.068Z,13.7
2018-09-11T00:24:32.274Z,13.7
2018-09-11T00:25:39.485Z,13.7
2018-09-11T00:26:46.695Z,13.7
2018-09-11T00:27:53.901Z,13.7
2018-09-11T00:29:01.118Z,13.7
2018-09-11T00:30:08.330Z,13.7
2018-09-11T00:31:15.537Z,13.6
2018-09-11T00:32:22.752Z,13.6
2018-09-11T00:33:29.965Z,13.6
2018-09-11T00:34:37.175Z,13.6
2018-09-11T00:35:44.385Z,13.5
2018-09-11T00:36:51.597Z,13.5
2018-09-11T00:37:58.561Z,13.5
2018-09-11T00:39:05.509Z,13.5
2018-09-11T00:40:12.726Z,13.5
2018-09-11T00:41:19.935Z,13.5
2018-09-11T00:42:27.143Z,13.5
2018-09-11T00:43:34.355Z,13.5
2018-09-11T00:44:41.568Z,13.4
2018-09-11T00:45:48.775Z,13.4
2018-09-11T00:46:56.001Z,13.4
2018-09-11T00:48:03.203Z,13.4
2018-09-11T00:49:10.414Z,13.4
2018-09-11T00:50:17.623Z,13.4
2018-09-11T00:51:25.037Z,13.4
2018-09-11T00:52:32.250Z,13.3
2018-09-11T00:53:39.460Z,13.4
2018-09-11T00:54:46.667Z,13.4
2018-09-11T00:55:53.879Z,13.4
2018-09-11T00:57:01.095Z,13.3
2018-09-11T00:58:08.035Z,13.3
2018-09-11T00:59:15.256Z,13.3
2018-09-11T01:00:22.464Z,13.3
2018-09-11T01:01:29.684Z,13.2
2018-09-11T01:02:36.893Z,13.2
2018-09-11T01:03:44.104Z,13.2
2018-09-11T01:04:51.319Z,13.1
2018-09-11T01:05:58.524Z,13.2
2018-09-11T01:07:05.734Z,13.1
2018-09-11T01:08:12.964Z,13.1
2018-09-11T01:09:20.173Z,13.1
2018-09-11T01:10:27.382Z,13.1
2018-09-11T01:11:34.323Z,13.1
2018-09-11T01:12:41.279Z,13.1
2018-09-11T01:13:48.472Z,13
2018-09-11T01:14:55.410Z,13
2018-09-11T01:16:02.629Z,13
2018-09-11T01:17:09.837Z,13
2018-09-11T01:18:17.045Z,12.9
2018-09-11T01:19:24.256Z,12.9
2018-09-11T01:20:31.464Z,12.9
2018-09-11T01:21:38.677Z,12.9
2018-09-11T01:22:45.888Z,12.9
2018-09-11T01:23:52.827Z,12.9
2018-09-11T01:25:00.037Z,12.9
2018-09-11T01:26:07.298Z,12.8
2018-09-11T01:27:14.509Z,12.8
2018-09-11T01:28:21.724Z,12.8
2018-09-11T01:29:28.939Z,12.8
2018-09-11T01:30:36.150Z,12.8
2018-09-11T01:31:43.356Z,12.8
2018-09-11T01:32:50.571Z,12.8
2018-09-11T01:33:57.781Z,12.8
2018-09-11T01:35:04.715Z,12.8
2018-09-11T01:36:11.932Z,12.8
2018-09-11T01:37:19.174Z,12.8
2018-09-11T01:38:26.386Z,12.8
2018-09-11T01:39:33.597Z,12.7
2018-09-11T01:40:40.850Z,12.8
2018-09-11T01:41:48.063Z,12.8
2018-09-11T01:42:55.282Z,12.8
2018-09-11T01:44:02.224Z,12.9
2018-09-11T01:45:09.434Z,12.9
2018-09-11T01:46:16.644Z,12.9
2018-09-11T01:47:23.861Z,12.9
2018-09-11T01:48:31.070Z,12.9
2018-09-11T01:49:38.287Z,12.9
2018-09-11T01:50:45.499Z,12.9
2018-09-11T01:51:52.707Z,12.9
2018-09-11T01:52:59.913Z,12.9
2018-09-11T01:54:07.127Z,12.9
2018-09-11T01:55:14.337Z,12.9
2018-09-11T01:56:21.548Z,12.9
2018-09-11T01:57:28.755Z,12.9
2018-09-11T01:58:35.968Z,12.9
2018-09-11T01:59:43.180Z,12.8
2018-09-11T02:00:50.387Z,12.8
2018-09-11T02:01:57.605Z,12.8
2018-09-11T02:03:04.804Z,12.8
2018-09-11T02:04:11.739Z,12.8
2018-09-11T02:05:18.951Z,12.8
2018-09-11T02:06:26.161Z,12.8
2018-09-11T02:07:33.370Z,12.8
2018-09-11T02:08:40.306Z,12.7
2018-09-11T02:09:47.522Z,12.7
2018-09-11T02:10:54.738Z,12.7
2018-09-11T02:12:01.948Z,12.7
2018-09-11T02:13:08.882Z,12.7
2018-09-11T02:14:16.097Z,12.7
2018-09-11T02:15:23.307Z,12.7
2018-09-11T02:16:30.520Z,12.7
2018-09-11T02:17:37.729Z,12.7
2018-09-11T02:18:44.945Z,12.6
2018-09-11T02:19:51.883Z,12.6
2018-09-11T02:20:59.092Z,12.6
2018-09-11T02:22:06.300Z,12.6
2018-09-11T02:23:13.237Z,12.5
2018-09-11T02:24:20.176Z,12.5
2018-09-11T02:25:27.384Z,12.5
2018-09-11T02:26:34.591Z,12.6
2018-09-11T02:27:41.830Z,12.5
2018-09-11T02:28:48.762Z,12.5
2018-09-11T02:29:55.973Z,12.5
2018-09-11T02:31:03.190Z,12.5
2018-09-11T02:32:10.391Z,12.5
2018-09-11T02:33:17.323Z,12.5
2018-09-11T02:34:24.533Z,12.5
2018-09-11T02:35:31.783Z,12.5
2018-09-11T02:36:39.016Z,12.4
2018-09-11T02:37:46.222Z,12.4
2018-09-11T02:38:53.436Z,12.4
2018-09-11T02:40:00.735Z,12.4
2018-09-11T02:41:07.966Z,12.4
2018-09-11T02:42:15.186Z,12.3
2018-09-11T02:43:22.100Z,12.4
2018-09-11T02:44:29.308Z,12.3
2018-09-11T02:45:36.512Z,12.4
2018-09-11T02:46:43.724Z,12.3
2018-09-11T02:47:50.656Z,12.3
2018-09-11T02:48:57.605Z,12.3
2018-09-11T02:50:04.813Z,12.2
2018-09-11T02:51:12.026Z,12.2
2018-09-11T02:52:19.231Z,12.2
2018-09-11T02:53:26.443Z,12.2
2018-09-11T02:54:33.651Z,12.2
2018-09-11T02:55:40.585Z,12.2
2018-09-11T02:56:47.808Z,12.1
2018-09-11T02:57:55.009Z,12.1
2018-09-11T02:59:02.218Z,12.2
2018-09-11T03:00:09.459Z,12.1
2018-09-11T03:01:16.654Z,12.1
2018-09-11T03:02:23.865Z,12
2018-09-11T03:03:30.797Z,12
2018-09-11T03:04:38.010Z,12
2018-09-11T03:05:45.237Z,12
2018-09-11T03:06:52.447Z,12
2018-09-11T03:07:59.665Z,12
2018-09-11T03:09:06.866Z,12
2018-09-11T03:10:14.076Z,11.9
2018-09-11T03:11:21.341Z,11.9
2018-09-11T03:12:28.544Z,11.9
2018-09-11T03:13:35.754Z,11.9
2018-09-11T03:14:42.958Z,11.9
2018-09-11T03:15:50.169Z,11.9
2018-09-11T03:16:57.388Z,11.9
2018-09-11T03:18:04.595Z,11.8
2018-09-11T03:19:11.807Z,11.8
2018-09-11T03:20:19.021Z,11.8
2018-09-11T03:21:25.958Z,11.7
2018-09-11T03:22:32.893Z,11.7
2018-09-11T03:23:40.103Z,11.7
2018-09-11T03:24:47.319Z,11.7
2018-09-11T03:25:54.744Z,11.7
2018-09-11T03:27:01.956Z,11.6
2018-09-11T03:28:08.900Z,11.6
2018-09-11T03:29:16.144Z,11.6
2018-09-11T03:30:23.359Z,11.6
2018-09-11T03:31:30.574Z,11.6
2018-09-11T03:32:37.787Z,11.6
2018-09-11T03:33:44.995Z,11.6
2018-09-11T03:34:52.204Z,11.6
2018-09-11T03:35:59.409Z,11.6
2018-09-11T03:37:06.623Z,11.6
2018-09-11T03:38:13.829Z,11.6
2018-09-11T03:39:21.050Z,11.6
2018-09-11T03:40:28.257Z,11.6
2018-09-11T03:41:35.480Z,11.5
2018-09-11T03:42:42.690Z,11.5
2018-09-11T03:43:49.629Z,11.5
2018-09-11T03:44:56.843Z,11.5
2018-09-11T03:46:03.776Z,11.5
2018-09-11T03:47:10.721Z,11.5
2018-09-11T03:48:17.930Z,11.4
2018-09-11T03:49:25.148Z,11.4
2018-09-11T03:50:32.364Z,11.4
2018-09-11T03:51:39.559Z,11.4
2018-09-11T03:52:46.769Z,11.3
2018-09-11T03:53:53.431Z,11.4
2018-09-11T03:55:00.644Z,11.4
2018-09-11T03:56:07.858Z,11.4
2018-09-11T03:57:15.066Z,11.3
2018-09-11T03:58:22.289Z,11.3
2018-09-11T03:59:29.504Z,11.2
2018-09-11T04:00:36.720Z,11.2
2018-09-11T04:01:43.934Z,11.2
2018-09-11T04:02:51.144Z,11.2
2018-09-11T04:03:58.356Z,11.2
2018-09-11T04:05:05.567Z,11.2
2018-09-11T04:06:12.786Z,11.2
2018-09-11T04:07:19.989Z,11.2
2018-09-11T04:08:26.925Z,11.2
2018-09-11T04:09:34.132Z,11.2
2018-09-11T04:10:41.347Z,11.2
2018-09-11T04:11:48.559Z,11.2
2018-09-11T04:12:55.776Z,11.2
2018-09-11T04:14:02.715Z,11.1
2018-09-11T04:15:09.924Z,11.1
2018-09-11T04:16:17.130Z,11.1
2018-09-11T04:17:24.345Z,11.1
2018-09-11T04:18:31.554Z,11
2018-09-11T04:19:38.765Z,11
2018-09-11T04:20:45.972Z,11
2018-09-11T04:21:53.179Z,11
2018-09-11T04:23:00.390Z,11
2018-09-11T04:24:07.600Z,11
2018-09-11T04:25:14.806Z,11
2018-09-11T04:26:22.020Z,11
2018-09-11T04:27:29.235Z,10.9
2018-09-11T04:28:36.444Z,10.9
2018-09-11T04:29:43.654Z,10.9
2018-09-11T04:30:50.863Z,10.9
2018-09-11T04:31:58.077Z,10.9
2018-09-11T04:33:05.290Z,10.9
2018-09-11T04:34:12.502Z,10.9
2018-09-11T04:35:19.709Z,10.9
2018-09-11T04:36:27.014Z,10.9
2018-09-11T04:37:34.126Z,10.8
2018-09-11T04:38:41.327Z,10.8
2018-09-11T04:39:48.534Z,10.8
2018-09-11T04:40:55.744Z,10.8
2018-09-11T04:42:02.962Z,10.8
2018-09-11T04:43:10.404Z,10.8
2018-09-11T04:44:17.963Z,10.8
2018-09-11T04:45:25.215Z,10.8
2018-09-11T04:46:32.423Z,10.8
2018-09-11T04:47:39.633Z,10.9
2018-09-11T04:48:46.572Z,10.8
2018-09-11T04:49:53.782Z,10.8
2018-09-11T04:51:01.023Z,10.8
2018-09-11T04:52:07.975Z,10.8
2018-09-11T04:53:15.182Z,10.8
2018-09-11T04:54:22.389Z,10.8
2018-09-11T04:55:29.596Z,10.8
2018-09-11T04:56:36.803Z,10.8
2018-09-11T04:57:43.744Z,10.8
2018-09-11T04:58:50.953Z,10.8
2018-09-11T04:59:58.159Z,10.8
2018-09-11T05:01:05.378Z,10.8
2018-09-11T05:02:12.593Z,10.8
2018-09-11T05:03:19.810Z,10.8
2018-09-11T05:04:27.021Z,10.8
2018-09-11T05:05:34.237Z,10.8
2018-09-11T05:06:41.442Z,10.8
2018-09-11T05:07:48.652Z,10.8
2018-09-11T05:08:55.864Z,10.9
2018-09-11T05:10:03.090Z,10.8
2018-09-11T05:11:10.017Z,10.9
2018-09-11T05:12:17.234Z,10.9
2018-09-11T05:13:24.439Z,10.9
2018-09-11T05:14:31.651Z,10.9
2018-09-11T05:15:38.865Z,11
2018-09-11T05:16:45.533Z,11
2018-09-11T05:17:52.743Z,11
2018-09-11T05:18:59.751Z,10.9
2018-09-11T05:20:07.041Z,11
2018-09-11T05:21:14.252Z,11
2018-09-11T05:22:21.461Z,11.1
2018-09-11T05:23:28.668Z,11.1
2018-09-11T05:24:35.913Z,11.1
2018-09-11T05:25:43.112Z,11.1
2018-09-11T05:26:50.319Z,11.1
2018-09-11T05:27:57.530Z,11.1
2018-09-11T05:29:04.462Z,11.1
2018-09-11T05:30:11.683Z,11.1
2018-09-11T05:31:18.618Z,11.1
2018-09-11T05:32:25.825Z,11.1
2018-09-11T05:33:33.031Z,11.2
2018-09-11T05:34:40.245Z,11.2
2018-09-11T05:35:47.458Z,11.3
2018-09-11T05:36:54.670Z,11.3
2018-09-11T05:38:01.881Z,11.3
2018-09-11T05:39:08.932Z,11.3
2018-09-11T05:40:16.623Z,11.4
2018-09-11T05:41:23.830Z,11.4
2018-09-11T05:42:31.045Z,11.4
2018-09-11T05:43:38.261Z,11.5
2018-09-11T05:44:45.474Z,11.5
2018-09-11T05:45:52.701Z,11.5
2018-09-11T05:46:59.757Z,11.6
2018-09-11T05:48:07.003Z,11.6
2018-09-11T05:49:14.220Z,11.6
2018-09-11T05:50:21.441Z,11.6
2018-09-11T05:51:28.666Z,11.6
2018-09-11T05:52:35.875Z,11.6
2018-09-11T05:53:43.089Z,11.7
2018-09-11T05:54:50.297Z,11.7
2018-09-11T05:55:57.515Z,11.7
2018-09-11T05:57:04.766Z,11.7
2018-09-11T05:58:11.520Z,11.8
2018-09-11T05:59:18.828Z,11.8
2018-09-11T06:00:25.766Z,11.9
2018-09-11T06:01:32.977Z,11.9
2018-09-11T06:02:40.201Z,11.9
2018-09-11T06:03:47.142Z,12
2018-09-11T06:04:54.358Z,12
2018-09-11T06:06:01.575Z,12.1
2018-09-11T06:07:08.787Z,12.1
2018-09-11T06:08:16.014Z,12.2
2018-09-11T06:09:23.229Z,12.3
2018-09-11T06:10:30.439Z,12.4
2018-09-11T06:11:37.649Z,12.5
2018-09-11T06:12:44.860Z,12.6
2018-09-11T06:13:52.076Z,12.7
2018-09-11T06:14:59.287Z,12.8
2018-09-11T06:16:06.527Z,12.8
2018-09-11T06:17:13.756Z,12.9
2018-09-11T06:18:21.001Z,13
2018-09-11T06:19:28.207Z,13.1
2018-09-11T06:20:35.415Z,13.2
2018-09-11T06:21:42.632Z,13.2
2018-09-11T06:22:49.840Z,13.3
2018-09-11T06:23:57.053Z,13.4
2018-09-11T06:25:04.272Z,13.5
2018-09-11T06:26:11.489Z,13.5
2018-09-11T06:27:18.707Z,13.6
2018-09-11T06:28:25.915Z,13.8
2018-09-11T06:29:33.129Z,13.9
2018-09-11T06:30:40.346Z,14
2018-09-11T06:31:47.556Z,14.2
2018-09-11T06:32:54.767Z,14.4
2018-09-11T06:34:01.986Z,14.6
2018-09-11T06:35:09.234Z,14.7
2018-09-11T06:36:16.455Z,14.9
2018-09-11T06:37:23.673Z,15
2018-09-11T06:38:30.888Z,15.1
2018-09-11T06:39:37.834Z,15.2
2018-09-11T06:40:45.045Z,15.4
2018-09-11T06:41:52.264Z,15.5
2018-09-11T06:42:59.473Z,15.6
2018-09-11T06:44:06.695Z,15.6
2018-09-11T06:45:13.913Z,15.8
2018-09-11T06:46:21.140Z,15.9
2018-09-11T06:47:28.082Z,16
2018-09-11T06:48:35.319Z,16
2018-09-11T06:49:42.533Z,16.1
2018-09-11T06:50:49.747Z,16.3
2018-09-11T06:51:56.960Z,16.5
2018-09-11T06:53:04.188Z,16.7
2018-09-11T06:54:11.123Z,16.8
2018-09-11T06:55:18.339Z,16.9
2018-09-11T06:56:25.565Z,16.9
2018-09-11T06:57:32.775Z,16.8
2018-09-11T06:58:39.992Z,16.8
2018-09-11T06:59:47.205Z,16.8
2018-09-11T07:00:54.145Z,16.9
2018-09-11T07:02:01.642Z,17
2018-09-11T07:03:09.208Z,17.1
2018-09-11T07:04:16.151Z,17.2
2018-09-11T07:05:23.369Z,17.3
2018-09-11T07:06:30.586Z,17.5
2018-09-11T07:07:37.815Z,17.5
2018-09-11T07:08:44.758Z,17.6
2018-09-11T07:09:51.972Z,17.7
2018-09-11T07:10:59.189Z,17.8
2018-09-11T07:12:06.410Z,18
2018-09-11T07:13:13.615Z,18.2
2018-09-11T07:14:20.560Z,18.4
2018-09-11T07:15:27.776Z,18.6
2018-09-11T07:16:35.004Z,18.8
2018-09-11T07:17:42.212Z,18.9
2018-09-11T07:18:49.163Z,18.9
2018-09-11T07:19:56.631Z,18.9
2018-09-11T07:21:04.278Z,19
2018-09-11T07:22:11.250Z,19.1
2018-09-11T07:23:18.467Z,19
2018-09-11T07:24:25.696Z,19.1
2018-09-11T07:25:32.907Z,19
2018-09-11T07:26:40.120Z,18.9
2018-09-11T07:27:47.336Z,19
2018-09-11T07:28:54.544Z,19.2
2018-09-11T07:30:01.761Z,19.2
2018-09-11T07:31:08.969Z,19.3
2018-09-11T07:32:15.913Z,19.3
2018-09-11T07:33:23.237Z,19.5
2018-09-11T07:34:30.458Z,19.5
2018-09-11T07:35:37.671Z,19.5
2018-09-11T07:36:44.890Z,19.6
2018-09-11T07:37:52.181Z,19.6
2018-09-11T07:38:59.538Z,19.7
2018-09-11T07:40:06.764Z,19.5
2018-09-11T07:41:13.980Z,19.5
2018-09-11T07:42:21.197Z,19.5
2018-09-11T07:43:28.148Z,19.5
2018-09-11T07:44:35.372Z,19.5
2018-09-11T07:45:42.581Z,19.6
2018-09-11T07:46:49.800Z,19.7
2018-09-11T07:47:57.424Z,19.8
2018-09-11T07:49:04.641Z,19.9
2018-09-11T07:50:11.849Z,20.1
2018-09-11T07:51:19.068Z,20.2
2018-09-11T07:52:26.372Z,20.2
2018-09-11T07:53:33.321Z,20
2018-09-11T07:54:40.543Z,19.8
2018-09-11T07:55:47.764Z,20
2018-09-11T07:56:54.980Z,20.1
2018-09-11T07:58:02.459Z,20.2
2018-09-11T07:59:09.968Z,20.4
2018-09-11T08:00:17.209Z,20.3
2018-09-11T08:01:24.427Z,20.3
2018-09-11T08:02:31.652Z,20.5
2018-09-11T08:03:38.873Z,20.5
2018-09-11T08:04:45.808Z,20.3
2018-09-11T08:05:53.021Z,20.2
2018-09-11T08:06:59.966Z,20.4
2018-09-11T08:08:07.180Z,20.6
2018-09-11T08:09:14.123Z,20.7
2018-09-11T08:10:21.334Z,20.8
2018-09-11T08:11:28.553Z,20.9
2018-09-11T08:12:35.766Z,20.9
2018-09-11T08:13:42.714Z,20.9
2018-09-11T08:14:49.932Z,21
2018-09-11T08:15:57.150Z,21
2018-09-11T08:17:04.367Z,20.8
2018-09-11T08:18:11.307Z,20.7
2018-09-11T08:19:18.558Z,20.7
2018-09-11T08:20:25.759Z,20.7
2018-09-11T08:21:32.975Z,20.9
2018-09-11T08:22:40.189Z,21.2
2018-09-11T08:23:47.412Z,21.5
2018-09-11T08:24:54.624Z,21.4
2018-09-11T08:26:01.844Z,21.2
2018-09-11T08:27:09.057Z,21.2
2018-09-11T08:28:16.279Z,21.2
2018-09-11T08:29:23.667Z,21.4
2018-09-11T08:30:31.131Z,21.4
2018-09-11T08:31:38.068Z,21.6
2018-09-11T08:32:45.283Z,21.8
2018-09-11T08:33:52.495Z,22.1
2018-09-11T08:34:59.712Z,22.4
2018-09-11T08:36:06.936Z,22.3
2018-09-11T08:37:28.802Z,22.2
2018-09-11T08:38:36.017Z,22.2
2018-09-11T08:39:43.237Z,22.1
2018-09-11T08:40:50.502Z,22.4
2018-09-11T08:41:57.446Z,22.8
2018-09-11T08:43:04.661Z,22.7
2018-09-11T08:44:11.610Z,22.9
2018-09-11T08:45:18.824Z,23.1
2018-09-11T08:46:26.036Z,23.3
2018-09-11T08:47:33.251Z,23.3
2018-09-11T08:48:40.468Z,23.2
2018-09-11T08:49:47.688Z,23.1
2018-09-11T08:50:54.912Z,22.9
2018-09-11T08:52:02.202Z,22.7
2018-09-11T08:53:09.542Z,22.7
2018-09-11T08:54:16.757Z,22.6
2018-09-11T08:55:23.973Z,22.9
2018-09-11T08:56:31.195Z,23.1
2018-09-11T08:57:38.413Z,23.3
2018-09-11T08:58:45.629Z,23.5
2018-09-11T08:59:52.579Z,23.6
2018-09-11T09:00:59.804Z,23.3
2018-09-11T09:02:07.022Z,23
2018-09-11T09:03:14.236Z,22.7
2018-09-11T09:04:21.457Z,22.4
2018-09-11T09:05:28.676Z,22.2
2018-09-11T09:06:35.885Z,22.2
2018-09-11T09:07:42.825Z,22.2
2018-09-11T09:08:50.041Z,22.2
2018-09-11T09:09:57.273Z,22.3
2018-09-11T09:11:04.564Z,22.4
2018-09-11T09:12:11.509Z,22.4
2018-09-11T09:13:18.727Z,22.5
2018-09-11T09:14:25.948Z,22.7
2018-09-11T09:15:33.224Z,22.6
2018-09-11T09:16:40.603Z,22.9
2018-09-11T09:17:47.835Z,23
2018-09-11T09:18:55.052Z,23.3
2018-09-11T09:20:02.269Z,23.3
2018-09-11T09:21:09.489Z,23.3
2018-09-11T09:22:16.736Z,23.2
2018-09-11T09:23:23.947Z,23.1
2018-09-11T09:24:30.884Z,23.3
2018-09-11T09:25:38.101Z,23.7
2018-09-11T09:26:45.317Z,23.9
2018-09-11T09:27:52.310Z,23.9
2018-09-11T09:28:59.250Z,23.7
2018-09-11T09:30:06.466Z,23.6
2018-09-11T09:31:13.688Z,23.6
2018-09-11T09:32:20.905Z,23.7
2018-09-11T09:33:28.126Z,23.9
2018-09-11T09:34:35.340Z,24
2018-09-11T09:35:42.559Z,24.2
2018-09-11T09:36:49.920Z,24.3
2018-09-11T09:37:57.213Z,24.1
2018-09-11T09:39:04.166Z,24.1
2018-09-11T09:40:11.385Z,23.8
2018-09-11T09:41:18.603Z,23.9
2018-09-11T09:42:25.820Z,24
2018-09-11T09:43:33.035Z,23.9
2018-09-11T09:44:40.254Z,23.6
2018-09-11T09:45:47.194Z,23.7
2018-09-11T09:46:54.415Z,23.9
2018-09-11T09:48:01.630Z,24.2
2018-09-11T09:49:08.859Z,24.1
2018-09-11T09:50:16.089Z,23.9
2018-09-11T09:51:23.027Z,24.1
2018-09-11T09:52:30.491Z,24.2
2018-09-11T09:53:37.435Z,24.3
2018-09-11T09:54:44.388Z,24.4
2018-09-11T09:55:51.611Z,24.3
2018-09-11T09:56:58.825Z,24.3
2018-09-11T09:58:06.044Z,24.5
2018-09-11T09:59:12.991Z,24.3
2018-09-11T10:00:20.217Z,24.5
2018-09-11T10:01:27.430Z,24.6
2018-09-11T10:02:34.658Z,24.8
2018-09-11T10:03:41.885Z,24.9
2018-09-11T10:04:49.226Z,25.1
2018-09-11T10:05:56.841Z,25.2
2018-09-11T10:07:04.049Z,25.2
2018-09-11T10:08:11.278Z,25.1
2018-09-11T10:09:18.509Z,25.1
2018-09-11T10:10:25.731Z,25.3
2018-09-11T10:11:32.956Z,25.5
2018-09-11T10:12:40.268Z,25.5
2018-09-11T10:13:47.494Z,25.2
2018-09-11T10:14:54.716Z,25.2
2018-09-11T10:16:01.681Z,25.3
2018-09-11T10:17:08.898Z,25.4
2018-09-11T10:18:16.068Z,25.2
2018-09-11T10:19:23.276Z,25.1
2018-09-11T10:20:30.502Z,25.2
2018-09-11T10:21:37.722Z,25.3
2018-09-11T10:22:44.696Z,25.3
2018-09-11T10:23:51.920Z,25.5
2018-09-11T10:24:59.137Z,25.7
2018-09-11T10:26:06.093Z,25.8
2018-09-11T10:27:13.047Z,25.9
2018-09-11T10:28:20.267Z,26.2
2018-09-11T10:29:27.493Z,26.4
2018-09-11T10:30:34.716Z,26.5
2018-09-11T10:31:41.933Z,26.4
2018-09-11T10:32:49.158Z,26.2
2018-09-11T10:33:56.477Z,26.2
2018-09-11T10:35:03.700Z,26.3
2018-09-11T10:36:10.917Z,26.3
2018-09-11T10:37:18.126Z,26.1
2018-09-11T10:38:25.343Z,26.2
2018-09-11T10:39:32.600Z,26.5
2018-09-11T10:40:40.108Z,26.6
2018-09-11T10:41:47.327Z,26.3
2018-09-11T10:42:54.547Z,26.2
2018-09-11T10:44:01.768Z,26.3
2018-09-11T10:45:09.139Z,26.3
2018-09-11T10:46:16.989Z,26.4
2018-09-11T10:47:24.215Z,26.6
2018-09-11T10:48:31.439Z,26.9
2018-09-11T10:49:38.660Z,26.5
2018-09-11T10:50:45.875Z,26.4
2018-09-11T10:51:53.103Z,26.5
2018-09-11T10:53:00.555Z,26.6
2018-09-11T10:54:07.771Z,26.6
2018-09-11T10:55:14.995Z,26.5
2018-09-11T10:56:22.579Z,26.5
2018-09-11T10:57:30.004Z,26.3
2018-09-11T10:58:37.229Z,26.4
2018-09-11T10:59:44.450Z,26.4
2018-09-11T11:00:51.674Z,26.3
2018-09-11T11:01:58.901Z,26.2
2018-09-11T11:03:06.112Z,26.1
2018-09-11T11:04:13.339Z,26.1
2018-09-11T11:05:20.558Z,26.1
2018-09-11T11:06:27.812Z,26.4
2018-09-11T11:07:35.037Z,26.5
2018-09-11T11:08:42.001Z,26.7
2018-09-11T11:09:49.218Z,26.8
2018-09-11T11:10:56.441Z,26.7
2018-09-11T11:12:03.655Z,26.8
2018-09-11T11:13:10.874Z,27
2018-09-11T11:14:18.112Z,27
2018-09-11T11:15:25.335Z,26.6
2018-09-11T11:16:32.557Z,26.2
2018-09-11T11:17:39.783Z,26
2018-09-11T11:18:47.009Z,25.9
2018-09-11T11:19:54.232Z,25.9
2018-09-11T11:21:01.609Z,26.1
2018-09-11T11:22:08.837Z,26.1
2018-09-11T11:23:16.070Z,26.1
2018-09-11T11:24:23.292Z,26.1
2018-09-11T11:25:30.509Z,26.1
2018-09-11T11:26:37.454Z,26.3
2018-09-11T11:27:44.668Z,26.2
2018-09-11T11:28:51.886Z,26.1
2018-09-11T11:29:58.836Z,26.1
2018-09-11T11:31:06.050Z,26.2
2018-09-11T11:32:13.268Z,26.2
2018-09-11T11:33:20.489Z,26
2018-09-11T11:34:27.707Z,26
2018-09-11T11:35:34.934Z,26.1
2018-09-11T11:36:42.595Z,26.2
2018-09-11T11:37:50.483Z,26.6
2018-09-11T11:38:57.702Z,26.5
2018-09-11T11:40:04.929Z,26.5
2018-09-11T11:41:12.148Z,26.6
2018-09-11T11:42:19.529Z,26.8
2018-09-11T11:43:27.033Z,26.8
2018-09-11T11:44:34.252Z,26.8
2018-09-11T11:45:41.472Z,26.7
2018-09-11T11:46:48.686Z,26.8
2018-09-11T11:47:55.903Z,27
2018-09-11T11:49:03.127Z,26.8
2018-09-11T11:50:10.350Z,26.8
2018-09-11T11:51:17.577Z,26.9
2018-09-11T11:52:24.792Z,27.2
2018-09-11T11:53:31.748Z,27
2018-09-11T11:54:38.986Z,27.1
2018-09-11T11:55:46.226Z,27.1
2018-09-11T11:56:53.444Z,27.1
2018-09-11T11:58:00.666Z,27
2018-09-11T11:59:07.889Z,26.9
2018-09-11T12:00:15.110Z,27.1
2018-09-11T12:01:22.160Z,27.2
2018-09-11T12:02:29.528Z,27.1
2018-09-11T12:03:36.748Z,27.1
2018-09-11T12:04:43.976Z,27.2
2018-09-11T12:05:51.198Z,27.5
2018-09-11T12:06:58.424Z,27.7
2018-09-11T12:08:05.646Z,27.9
2018-09-11T12:09:12.591Z,27.7
2018-09-11T12:10:19.813Z,27.4
2018-09-11T12:11:26.760Z,27.4
2018-09-11T12:12:33.973Z,27.4
2018-09-11T12:13:41.199Z,27.4
2018-09-11T12:14:48.422Z,27.6
2018-09-11T12:15:55.646Z,27.9
2018-09-11T12:17:03.045Z,27.7
2018-09-11T12:18:10.500Z,27.7
2018-09-11T12:19:17.720Z,27.7
2018-09-11T12:20:24.935Z,27.8
2018-09-11T12:21:32.166Z,27.9
2018-09-11T12:22:39.377Z,28
2018-09-11T12:23:46.597Z,27.7
2018-09-11T12:24:53.819Z,27.7
2018-09-11T12:26:01.034Z,27.9
2018-09-11T12:27:08.250Z,28.1
2018-09-11T12:28:15.470Z,28.2
2018-09-11T12:29:22.686Z,28.2
2018-09-11T12:30:29.629Z,28.1
2018-09-11T12:31:36.857Z,28.3
2018-09-11T12:32:44.076Z,28.6
2018-09-11T12:33:51.296Z,28.3
2018-09-11T12:34:58.530Z,28.3
2018-09-11T12:36:05.738Z,28.5
2018-09-11T12:37:12.954Z,28.5
2018-09-11T12:38:20.172Z,28.4
2018-09-11T12:39:27.380Z,28.2
2018-09-11T12:40:34.603Z,28.3
2018-09-11T12:41:41.819Z,28.5
2018-09-11T12:42:48.764Z,28.8
2018-09-11T12:43:55.722Z,28.8
2018-09-11T12:45:02.951Z,28.6
2018-09-11T12:46:10.699Z,28.5
2018-09-11T12:47:19.853Z,28.6
2018-09-11T12:48:28.624Z,28.8
2018-09-11T12:49:36.342Z,28.5
2018-09-11T12:50:43.580Z,28.5
2018-09-11T12:51:50.523Z,28.4
2018-09-11T12:52:57.743Z,28.4
2018-09-11T12:54:04.966Z,28.5
2018-09-11T12:55:12.189Z,28.6
2018-09-11T12:56:19.142Z,28.8
2018-09-11T12:57:26.373Z,28.8
2018-09-11T12:58:33.319Z,28.7
2018-09-11T12:59:40.255Z,28.8
2018-09-11T13:00:47.478Z,28.7
2018-09-11T13:01:54.707Z,28.7
2018-09-11T13:03:01.928Z,28.6
2018-09-11T13:04:09.149Z,28.8
2018-09-11T13:05:16.364Z,29
2018-09-11T13:06:23.589Z,29.2
2018-09-11T13:07:30.525Z,29.5
2018-09-11T13:08:37.745Z,29.4
2018-09-11T13:09:44.959Z,29.3
2018-09-11T13:10:52.287Z,29.4
2018-09-11T13:11:59.561Z,29.2
2018-09-11T13:13:06.785Z,29.1
2018-09-11T13:14:14.003Z,29.3
2018-09-11T13:15:21.220Z,29.3
2018-09-11T13:16:28.438Z,29.4
2018-09-11T13:17:35.666Z,29.5
2018-09-11T13:18:42.925Z,29.7
2018-09-11T13:19:49.871Z,29.7
2018-09-11T13:20:56.913Z,29.5
2018-09-11T13:22:04.136Z,29.5
2018-09-11T13:23:11.356Z,29.4
2018-09-11T13:24:18.571Z,29.4
2018-09-11T13:25:25.964Z,29.5
2018-09-11T13:26:33.501Z,29.5
2018-09-11T13:27:40.440Z,29.6
2018-09-11T13:28:47.672Z,29.7
2018-09-11T13:29:54.895Z,29.7
2018-09-11T13:31:02.112Z,29.6
2018-09-11T13:32:09.334Z,29.6
2018-09-11T13:33:16.556Z,29.4
2018-09-11T13:34:23.788Z,29.6
2018-09-11T13:35:31.015Z,29.8
2018-09-11T13:36:37.957Z,29.9
2018-09-11T13:37:44.903Z,30.1
2018-09-11T13:38:52.116Z,30.2
2018-09-11T13:39:59.073Z,29.9
2018-09-11T13:41:06.293Z,29.5
2018-09-11T13:42:13.517Z,29.6
2018-09-11T13:43:20.502Z,29.9
2018-09-11T13:44:27.705Z,30.1
2018-09-11T13:45:34.927Z,30.1
2018-09-11T13:46:42.153Z,30
2018-09-11T13:47:49.511Z,29.7
2018-09-11T13:48:56.955Z,29.9
2018-09-11T13:50:04.181Z,29.4
2018-09-11T13:51:11.404Z,29.3
2018-09-11T13:52:18.624Z,29.4
2018-09-11T13:53:25.850Z,29.4
2018-09-11T13:54:33.067Z,29.1
2018-09-11T13:55:40.293Z,29.1
2018-09-11T13:56:47.515Z,29.1
2018-09-11T13:57:54.737Z,29.2
2018-09-11T13:59:01.961Z,29.4
2018-09-11T14:00:09.193Z,29.1
2018-09-11T14:01:16.415Z,29.1
2018-09-11T14:02:23.636Z,29.2
2018-09-11T14:03:30.929Z,29.6
2018-09-11T14:04:38.156Z,29.8
2018-09-11T14:05:45.383Z,30
2018-09-11T14:06:52.611Z,29.9
2018-09-11T14:07:59.828Z,29.7
2018-09-11T14:09:06.783Z,29.7
2018-09-11T14:10:13.735Z,29.9
2018-09-11T14:11:20.965Z,29.9
2018-09-11T14:12:27.916Z,29.8
2018-09-11T14:13:35.143Z,29.6
2018-09-11T14:14:42.365Z,29.6
2018-09-11T14:15:49.686Z,29.8
2018-09-11T14:16:56.794Z,29.8
2018-09-11T14:18:04.041Z,30
2018-09-11T14:19:11.264Z,30
2018-09-11T14:20:18.485Z,30.2
2018-09-11T14:21:25.486Z,29.7
2018-09-11T14:22:32.746Z,29.6
2018-09-11T14:23:39.973Z,29.7
2018-09-11T14:24:47.195Z,29.8
2018-09-11T14:25:54.417Z,29.9
2018-09-11T14:27:01.365Z,29.9
2018-09-11T14:28:08.582Z,29.6
2018-09-11T14:29:15.803Z,29.4
2018-09-11T14:30:23.027Z,29.6
2018-09-11T14:31:30.250Z,29.9
2018-09-11T14:32:37.470Z,30.1
2018-09-11T14:33:44.701Z,30.1
2018-09-11T14:34:51.922Z,29.6
2018-09-11T14:35:59.142Z,29.6
2018-09-11T14:37:06.119Z,29.9
2018-09-11T14:38:13.074Z,29.9
2018-09-11T14:39:20.295Z,29.5
2018-09-11T14:40:27.241Z,29.5
2018-09-11T14:41:34.464Z,29.6
2018-09-11T14:42:41.419Z,29.7
2018-09-11T14:43:48.636Z,29.4
2018-09-11T14:44:55.858Z,29.2
2018-09-11T14:46:03.088Z,29.1
2018-09-11T14:47:10.306Z,29.4
2018-09-11T14:48:17.525Z,29.2
2018-09-11T14:49:24.744Z,29.1
2018-09-11T14:50:31.975Z,29.1
2018-09-11T14:51:39.195Z,29.2
2018-09-11T14:52:46.628Z,29.2
2018-09-11T14:53:53.853Z,29.3
2018-09-11T14:55:01.085Z,29.5
2018-09-11T14:56:08.033Z,29.5
2018-09-11T14:57:15.345Z,29.2
2018-09-11T14:58:22.578Z,29.1
2018-09-11T14:59:29.847Z,29.1